Sipesville, PA (15561)

8:35 AM EST on December 28, 2014 (GMT -0500)
Out in the country | Change Station
CLOSE
Current Station
Personal Weather Station
Location: Somerset, PA
Elevation: 2200 ft
Nearby Weather Stations

Elev 2200 ft 40.07 °N, 79.17 °W | Updated 1 second ago

Fog
Fog
43.3 °F
Feels Like 40 °F
N
6.0
Wind Variable Wind from SW
Gusts 14.0 mph

Today
High -- | Low -- °F
--% Chance of Precip.
Yesterday
High -- | Low -- °F
Precip. -- in
7:37 AM 4:58 PM
Waxing Crescent, 48% visible
Pressure 30.00 in
Visibility 2.0 miles
Clouds Overcast 600 ft
Windchill 40 °F
Dew Point 42 °F
Humidity 94%
Rainfall 0.04 in
Snow Depth Not available.
UV 0 out of 12
Pollen .10 out of 12
Air Quality Not available.
Flu Activity Not available.
METAR KLBE 281250Z 24010KT 2SM -RA BR OVC006 07/07 A3000

More Conditions Fewer Conditions

Pressure 30.00 in
Visibility 2.0 miles
Clouds Overcast 600 ft
Windchill 40 °F
Dew Point 42 °F
Humidity 94%
Rainfall 0.04 in
Snow Depth Not available.
UV 0 out of 12
Pollen .10 out of 12
Air Quality Not available.
Flu Activity Not available.
METAR KLBE 281250Z 24010KT 2SM -RA BR OVC006 07/07 A3000

More Conditions Fewer Conditions

10-Day Weather Forecast

Almanac

Astronomy

Dec. 28, 2014 Rise Set
Actual Time
Civil Twilight
Nautical Twilight
Astronomical Twilight
Moon
Length of Visible Light
Length of Day
Tomorrow will be .
, % of the Moon is Illuminated

Today's Extremes

State Highs State Lows

Community

WunderPhotos

Upload Photos

1,781,263 photos uploaded!

WunderBlogs® & News

Nearby

Air Quality

  Air Quality AQ Index Pollutant
Not available.

Snow Depth

Station Depth Elevation

Earthquake Activity

City Distance Mag. Time & Date
Minimum magnitude displayed is 2.5.

Coastal Water Temperatures

Place Temperature

Nearby Weather Stations